createdAt,value
2018-11-10T00:01:40.867Z,10.20
2018-11-10T00:04:16.232Z,10.20
2018-11-10T00:06:44.364Z,10.20
2018-11-10T00:09:12.401Z,10.20
2018-11-10T00:11:40.440Z,10.10
2018-11-10T00:14:08.493Z,10.10
2018-11-10T00:16:36.683Z,10.10
2018-11-10T00:19:04.610Z,10.10
2018-11-10T00:21:32.684Z,10.00
2018-11-10T00:24:00.800Z,10.00
2018-11-10T00:26:29.060Z,10.00
2018-11-10T00:28:57.333Z,10.00
2018-11-10T00:31:25.504Z,10.00
2018-11-10T00:33:53.546Z,10.00
2018-11-10T00:36:21.605Z,9.90
2018-11-10T00:38:49.644Z,9.90
2018-11-10T00:41:17.716Z,10.00
2018-11-10T00:43:45.730Z,9.80
2018-11-10T00:46:13.779Z,9.80
2018-11-10T00:48:41.836Z,9.70
2018-11-10T00:51:09.957Z,9.70
2018-11-10T00:53:38.001Z,9.70
2018-11-10T00:56:06.031Z,9.70
2018-11-10T00:58:34.055Z,9.70
2018-11-10T01:01:02.105Z,9.60
2018-11-10T01:03:30.120Z,9.70
2018-11-10T01:05:58.148Z,9.60
2018-11-10T01:08:26.188Z,9.60
2018-11-10T01:10:54.212Z,9.60
2018-11-10T01:13:22.256Z,9.50
2018-11-10T01:15:50.292Z,9.50
2018-11-10T01:18:18.311Z,9.50
2018-11-10T01:20:46.334Z,9.40
2018-11-10T01:23:14.361Z,9.50
2018-11-10T01:25:42.384Z,9.50
2018-11-10T01:28:10.436Z,9.60
2018-11-10T01:30:38.464Z,9.50
2018-11-10T01:33:06.507Z,9.40
2018-11-10T01:35:34.540Z,9.40
2018-11-10T01:38:02.581Z,9.40
2018-11-10T01:40:30.615Z,9.50
2018-11-10T01:42:58.651Z,9.50
2018-11-10T01:45:26.672Z,9.50
2018-11-10T01:47:54.721Z,9.50
2018-11-10T01:50:22.737Z,9.50
2018-11-10T01:52:50.776Z,9.50
2018-11-10T01:55:18.810Z,9.40
2018-11-10T01:57:46.840Z,9.40
2018-11-10T02:00:19.032Z,9.40
2018-11-10T02:02:47.611Z,9.50
2018-11-10T02:05:16.183Z,9.40
2018-11-10T02:07:44.260Z,9.40
2018-11-10T02:10:12.639Z,9.40
2018-11-10T02:12:41.073Z,9.40
2018-11-10T02:15:11.032Z,9.30
2018-11-10T02:17:39.127Z,9.30
2018-11-10T02:20:08.286Z,9.30
2018-11-10T02:22:36.341Z,9.20
2018-11-10T02:25:04.454Z,9.10
2018-11-10T02:27:32.504Z,9.20
2018-11-10T02:30:00.585Z,9.10
2018-11-10T02:32:28.624Z,9.10
2018-11-10T02:34:56.689Z,9.10
2018-11-10T02:37:24.759Z,9.20
2018-11-10T02:39:52.823Z,9.10
2018-11-10T02:42:20.874Z,9.10
2018-11-10T02:44:49.021Z,9.20
2018-11-10T02:47:17.061Z,9.20
2018-11-10T02:49:45.142Z,9.20
2018-11-10T02:52:13.188Z,9.20
2018-11-10T02:54:41.250Z,9.20
2018-11-10T02:57:10.329Z,9.20
2018-11-10T02:59:38.349Z,9.10
2018-11-10T03:02:06.388Z,9.10
2018-11-10T03:04:34.415Z,9.10
2018-11-10T03:07:02.474Z,9.10
2018-11-10T03:09:30.513Z,9.20
2018-11-10T03:11:58.520Z,9.20
2018-11-10T03:14:26.580Z,9.20
2018-11-10T03:16:54.611Z,9.10
2018-11-10T03:19:22.645Z,9.10
2018-11-10T03:21:50.693Z,9.10
2018-11-10T03:24:18.705Z,9.10
2018-11-10T03:26:46.744Z,9.10
2018-11-10T03:29:14.785Z,9.10
2018-11-10T03:31:42.869Z,9.00
2018-11-10T03:34:10.879Z,9.00
2018-11-10T03:36:38.924Z,9.00
2018-11-10T03:39:10.144Z,9.00
2018-11-10T03:41:38.168Z,9.10
2018-11-10T03:44:06.299Z,9.20
2018-11-10T03:46:34.349Z,9.10
2018-11-10T03:49:02.421Z,9.20
2018-11-10T03:51:30.448Z,9.20
2018-11-10T03:53:58.501Z,9.10
2018-11-10T03:56:26.539Z,9.10
2018-11-10T03:58:54.557Z,9.10
2018-11-10T04:01:22.613Z,9.10
2018-11-10T04:03:50.646Z,9.20
2018-11-10T04:06:18.675Z,9.20
2018-11-10T04:08:46.701Z,9.20
2018-11-10T04:11:14.741Z,9.20
2018-11-10T04:13:42.777Z,9.30
2018-11-10T04:16:10.815Z,9.30
2018-11-10T04:18:38.847Z,9.30
2018-11-10T04:21:06.883Z,9.30
2018-11-10T04:23:34.946Z,9.30
2018-11-10T04:26:03.265Z,9.30
2018-11-10T04:28:31.308Z,9.30
2018-11-10T04:30:59.351Z,9.30
2018-11-10T04:33:27.385Z,9.30
2018-11-10T04:35:55.418Z,9.40
2018-11-10T04:38:23.463Z,9.40
2018-11-10T04:40:51.552Z,9.40
2018-11-10T04:43:19.564Z,9.40
2018-11-10T04:45:47.600Z,9.40
2018-11-10T04:48:15.624Z,9.40
2018-11-10T04:50:43.689Z,9.50
2018-11-10T04:53:11.717Z,9.50
2018-11-10T04:55:39.761Z,9.50
2018-11-10T04:58:07.800Z,9.40
2018-11-10T05:00:35.844Z,9.30
2018-11-10T05:03:03.895Z,9.40
2018-11-10T05:05:31.908Z,9.40
2018-11-10T05:07:59.928Z,9.30
2018-11-10T05:10:27.980Z,9.40
2018-11-10T05:12:56.039Z,9.30
2018-11-10T05:15:24.056Z,9.40
2018-11-10T05:17:52.088Z,9.40
2018-11-10T05:20:20.135Z,9.40
2018-11-10T05:22:48.178Z,9.50
2018-11-10T05:25:16.205Z,9.50
2018-11-10T05:27:44.276Z,9.50
2018-11-10T05:30:12.416Z,9.50
2018-11-10T05:32:40.441Z,9.60
2018-11-10T05:35:08.954Z,9.70
2018-11-10T05:37:37.348Z,9.70
2018-11-10T05:40:06.661Z,9.80
2018-11-10T05:42:34.701Z,9.70
2018-11-10T05:45:03.081Z,9.70
2018-11-10T05:47:31.117Z,9.70
2018-11-10T05:49:59.139Z,9.70
2018-11-10T05:52:27.179Z,9.70
2018-11-10T05:54:55.226Z,9.80
2018-11-10T05:57:23.285Z,9.70
2018-11-10T05:59:51.336Z,9.80
2018-11-10T06:02:19.479Z,9.70
2018-11-10T06:04:47.513Z,9.70
2018-11-10T06:07:15.732Z,9.70
2018-11-10T06:09:43.840Z,9.70
2018-11-10T06:12:11.808Z,9.70
2018-11-10T06:14:39.836Z,9.70
2018-11-10T06:17:07.996Z,9.70
2018-11-10T06:19:36.028Z,9.80
2018-11-10T06:22:04.065Z,9.80
2018-11-10T06:24:32.096Z,9.70
2018-11-10T06:27:00.161Z,9.70
2018-11-10T06:29:28.184Z,9.70
2018-11-10T06:31:56.208Z,9.70
2018-11-10T06:34:24.249Z,9.70
2018-11-10T06:36:52.305Z,9.80
2018-11-10T06:39:20.369Z,9.70
2018-11-10T06:41:48.390Z,9.60
2018-11-10T06:44:16.405Z,9.70
2018-11-10T06:46:44.449Z,9.70
2018-11-10T06:49:12.532Z,9.80
2018-11-10T06:51:40.557Z,9.80
2018-11-10T06:54:08.584Z,9.80
2018-11-10T06:56:36.599Z,9.90
2018-11-10T06:59:05.144Z,9.90
2018-11-10T07:01:33.200Z,9.80
2018-11-10T07:04:01.248Z,9.80
2018-11-10T07:06:29.273Z,9.80
2018-11-10T07:08:57.341Z,9.80
2018-11-10T07:11:25.367Z,9.80
2018-11-10T07:13:53.400Z,9.80
2018-11-10T07:16:21.427Z,9.80
2018-11-10T07:18:49.484Z,9.70
2018-11-10T07:21:17.516Z,9.80
2018-11-10T07:23:45.561Z,9.80
2018-11-10T07:26:13.589Z,9.80
2018-11-10T07:28:41.652Z,9.90
2018-11-10T07:31:09.692Z,9.90
2018-11-10T07:33:37.747Z,9.90
2018-11-10T07:36:06.068Z,10.00
2018-11-10T07:38:34.098Z,10.00
2018-11-10T07:41:02.314Z,10.10
2018-11-10T07:43:30.345Z,10.10
2018-11-10T07:45:58.404Z,10.00
2018-11-10T07:48:26.444Z,10.10
2018-11-10T07:50:54.493Z,10.10
2018-11-10T07:53:22.547Z,10.20
2018-11-10T07:55:50.670Z,10.20
2018-11-10T07:58:18.645Z,10.20
2018-11-10T08:00:46.689Z,10.20
2018-11-10T08:03:14.704Z,10.30
2018-11-10T08:05:42.774Z,10.30
2018-11-10T08:08:10.821Z,10.30
2018-11-10T08:10:38.877Z,10.40
2018-11-10T08:13:06.920Z,10.40
2018-11-10T08:15:35.031Z,10.50
2018-11-10T08:18:03.068Z,10.60
2018-11-10T08:20:31.139Z,10.60
2018-11-10T08:22:59.176Z,10.60
2018-11-10T08:25:27.223Z,10.60
2018-11-10T08:27:55.262Z,10.60
2018-11-10T08:30:23.287Z,10.70
2018-11-10T08:32:51.349Z,10.70
2018-11-10T08:35:19.424Z,10.70
2018-11-10T08:37:47.732Z,10.80
2018-11-10T08:40:16.822Z,10.80
2018-11-10T08:42:44.875Z,10.90
2018-11-10T08:45:13.860Z,11.00
2018-11-10T08:47:42.775Z,11.10
2018-11-10T08:50:12.090Z,11.10
2018-11-10T08:52:40.563Z,11.10
2018-11-10T08:55:09.319Z,11.10
2018-11-10T08:57:37.702Z,11.20
2018-11-10T09:00:06.505Z,11.10
2018-11-10T09:02:34.562Z,11.20
2018-11-10T09:05:02.943Z,11.20
2018-11-10T09:07:30.979Z,11.20
2018-11-10T09:09:59.137Z,11.20
2018-11-10T09:12:27.097Z,11.30
2018-11-10T09:14:55.201Z,11.40
2018-11-10T09:17:23.191Z,11.50
2018-11-10T09:19:51.230Z,11.40
2018-11-10T09:22:19.263Z,11.40
2018-11-10T09:24:47.309Z,11.40
2018-11-10T09:27:15.343Z,11.40
2018-11-10T09:29:43.413Z,11.60
2018-11-10T09:32:11.456Z,11.70
2018-11-10T09:34:39.505Z,11.80
2018-11-10T09:37:07.568Z,11.80
2018-11-10T09:39:35.613Z,11.80
2018-11-10T09:42:03.706Z,11.80
2018-11-10T09:44:31.694Z,11.90
2018-11-10T09:46:59.748Z,11.90
2018-11-10T09:49:27.993Z,11.90
2018-11-10T09:51:57.018Z,11.90
2018-11-10T09:54:25.072Z,11.90
2018-11-10T09:56:53.129Z,12.00
2018-11-10T09:59:21.186Z,12.10
2018-11-10T10:01:49.581Z,12.10
2018-11-10T10:04:17.324Z,12.20
2018-11-10T10:06:45.367Z,12.20
2018-11-10T10:09:13.424Z,12.30
2018-11-10T10:11:41.690Z,12.30
2018-11-10T10:14:10.364Z,12.30
2018-11-10T10:16:38.734Z,12.40
2018-11-10T10:19:07.351Z,12.50
2018-11-10T10:21:35.658Z,12.50
2018-11-10T10:24:03.661Z,12.60
2018-11-10T10:26:31.725Z,12.70
2018-11-10T10:28:59.835Z,12.80
2018-11-10T10:31:27.803Z,12.80
2018-11-10T10:33:55.907Z,12.90
2018-11-10T10:36:23.960Z,13.00
2018-11-10T10:38:52.030Z,13.10
2018-11-10T10:41:20.078Z,13.20
2018-11-10T10:43:48.152Z,13.30
2018-11-10T10:46:16.187Z,13.40
2018-11-10T10:48:44.313Z,13.50
2018-11-10T10:51:12.284Z,13.50
2018-11-10T10:53:40.353Z,13.70
2018-11-10T10:56:08.448Z,13.70
2018-11-10T10:58:36.567Z,13.70
2018-11-10T11:01:10.241Z,13.80
2018-11-10T11:03:43.752Z,13.80
2018-11-10T11:06:11.784Z,13.80
2018-11-10T11:08:39.816Z,13.80
2018-11-10T11:11:07.869Z,13.80
2018-11-10T11:13:35.887Z,14.00
2018-11-10T11:16:03.957Z,14.00
2018-11-10T11:18:31.984Z,14.10
2018-11-10T11:21:00.016Z,14.10
2018-11-10T11:23:28.082Z,14.20
2018-11-10T11:25:56.115Z,14.30
2018-11-10T11:28:24.132Z,14.40
2018-11-10T11:30:52.177Z,14.40
2018-11-10T11:33:20.216Z,14.40
2018-11-10T11:35:48.264Z,14.40
2018-11-10T11:38:16.295Z,14.50
2018-11-10T11:40:44.353Z,14.50
2018-11-10T11:43:12.424Z,14.50
2018-11-10T11:45:40.448Z,14.60
2018-11-10T11:48:08.546Z,14.60
2018-11-10T11:50:36.561Z,14.80
2018-11-10T11:53:04.725Z,14.80
2018-11-10T11:55:32.765Z,14.80
2018-11-10T11:58:00.906Z,14.80
2018-11-10T12:00:28.828Z,14.90
2018-11-10T12:02:56.891Z,14.90
2018-11-10T12:05:24.948Z,14.80
2018-11-10T12:07:53.024Z,14.90
2018-11-10T12:10:21.065Z,14.80
2018-11-10T12:12:49.124Z,14.70
2018-11-10T12:15:17.420Z,14.80
2018-11-10T12:17:45.445Z,14.70
2018-11-10T12:20:14.690Z,14.60
2018-11-10T12:22:42.944Z,14.60
2018-11-10T12:25:12.054Z,14.60
2018-11-10T12:27:40.747Z,14.60
2018-11-10T12:30:09.530Z,14.60
2018-11-10T12:32:37.608Z,14.60
2018-11-10T12:35:06.832Z,14.60
2018-11-10T12:37:34.860Z,14.60
2018-11-10T12:40:02.941Z,14.60
2018-11-10T12:42:30.983Z,14.60
2018-11-10T12:44:59.061Z,14.50
2018-11-10T12:47:27.192Z,14.40
2018-11-10T12:49:55.186Z,14.40
2018-11-10T12:52:23.331Z,14.40
2018-11-10T12:54:51.330Z,14.40
2018-11-10T12:57:19.431Z,14.40
2018-11-10T12:59:47.480Z,14.30
2018-11-10T13:02:15.521Z,14.40
2018-11-10T13:04:43.542Z,14.50
2018-11-10T13:07:11.655Z,14.50
2018-11-10T13:09:40.739Z,14.50
2018-11-10T13:12:08.832Z,14.40
2018-11-10T13:14:36.839Z,14.30
2018-11-10T13:17:05.392Z,14.10
2018-11-10T13:19:33.405Z,14.10
2018-11-10T13:22:01.532Z,14.10
2018-11-10T13:24:29.564Z,14.00
2018-11-10T13:26:57.609Z,14.00
2018-11-10T13:29:25.632Z,14.00
2018-11-10T13:31:53.732Z,14.00
2018-11-10T13:34:21.726Z,14.10
2018-11-10T13:36:49.756Z,14.10
2018-11-10T13:39:17.787Z,14.10
2018-11-10T13:41:45.843Z,14.10
2018-11-10T13:44:13.954Z,14.20
2018-11-10T13:46:41.920Z,14.30
2018-11-10T13:49:09.955Z,14.20
2018-11-10T13:51:38.117Z,14.10
2018-11-10T13:54:06.252Z,14.10
2018-11-10T13:56:34.280Z,14.10
2018-11-10T13:59:02.324Z,14.00
2018-11-10T14:01:30.369Z,13.90
2018-11-10T14:03:58.412Z,13.90
2018-11-10T14:06:26.440Z,13.90
2018-11-10T14:08:54.486Z,13.90
2018-11-10T14:11:22.521Z,13.80
2018-11-10T14:13:50.574Z,13.80
2018-11-10T14:16:18.616Z,13.80
2018-11-10T14:18:46.671Z,13.70
2018-11-10T14:21:14.740Z,13.60
2018-11-10T14:23:42.784Z,13.60
2018-11-10T14:26:10.817Z,13.60
2018-11-10T14:28:38.873Z,13.70
2018-11-10T14:31:06.925Z,13.60
2018-11-10T14:33:34.971Z,13.50
2018-11-10T14:36:03.043Z,13.50
2018-11-10T14:38:31.104Z,13.40
2018-11-10T14:40:59.127Z,13.40
2018-11-10T14:43:27.172Z,13.40
2018-11-10T14:45:55.212Z,13.30
2018-11-10T14:48:23.263Z,13.30
2018-11-10T14:50:51.296Z,13.40
2018-11-10T14:53:19.554Z,13.30
2018-11-10T14:55:47.508Z,13.20
2018-11-10T14:58:15.556Z,13.20
2018-11-10T15:00:43.588Z,13.20
2018-11-10T15:03:11.616Z,13.30
2018-11-10T15:05:39.701Z,13.30
2018-11-10T15:08:07.705Z,13.30
2018-11-10T15:10:35.744Z,13.30
2018-11-10T15:13:03.764Z,13.30
2018-11-10T15:15:31.804Z,13.20
2018-11-10T15:17:59.864Z,13.20
2018-11-10T15:20:27.871Z,13.10
2018-11-10T15:22:55.924Z,13.20
2018-11-10T15:25:24.025Z,13.20
2018-11-10T15:27:52.020Z,13.10
2018-11-10T15:30:21.141Z,13.10
2018-11-10T15:32:49.712Z,13.00
2018-11-10T15:35:20.452Z,13.00
2018-11-10T15:37:49.655Z,13.00
2018-11-10T15:40:18.340Z,12.90
2018-11-10T15:42:46.511Z,12.90
2018-11-10T15:45:15.609Z,12.90
2018-11-10T15:47:47.307Z,12.90
2018-11-10T15:50:19.554Z,12.90
2018-11-10T15:52:50.701Z,12.90
2018-11-10T15:55:22.327Z,12.90
2018-11-10T15:57:50.408Z,12.80
2018-11-10T16:00:19.273Z,12.80
2018-11-10T16:02:47.325Z,12.80
2018-11-10T16:05:15.844Z,12.80
2018-11-10T16:07:43.968Z,12.80
2018-11-10T16:10:12.217Z,12.80
2018-11-10T16:12:40.315Z,12.80
2018-11-10T16:15:10.272Z,12.70
2018-11-10T16:17:38.757Z,12.70
2018-11-10T16:20:09.276Z,12.80
2018-11-10T16:22:37.324Z,12.70
2018-11-10T16:25:06.300Z,12.70
2018-11-10T16:27:34.353Z,12.70
2018-11-10T16:30:02.392Z,12.80
2018-11-10T16:32:30.496Z,12.80
2018-11-10T16:34:58.532Z,12.90
2018-11-10T16:37:26.576Z,12.90
2018-11-10T16:39:54.660Z,12.80
2018-11-10T16:42:22.720Z,12.70
2018-11-10T16:44:50.856Z,12.70
2018-11-10T16:47:18.835Z,12.60
2018-11-10T16:49:46.922Z,12.60
2018-11-10T16:52:14.972Z,12.70
2018-11-10T16:54:43.040Z,12.60
2018-11-10T16:57:11.120Z,12.50
2018-11-10T16:59:39.193Z,12.50
2018-11-10T17:02:07.326Z,12.40
2018-11-10T17:04:35.363Z,12.50
2018-11-10T17:07:03.468Z,12.60
2018-11-10T17:09:31.493Z,12.60
2018-11-10T17:11:59.532Z,12.60
2018-11-10T17:14:27.732Z,12.60
2018-11-10T17:16:55.738Z,12.60
2018-11-10T17:19:24.528Z,12.60
2018-11-10T17:21:52.700Z,12.70
2018-11-10T17:24:20.671Z,12.70
2018-11-10T17:26:48.712Z,12.60
2018-11-10T17:29:16.717Z,12.50
2018-11-10T17:31:44.777Z,12.60
2018-11-10T17:34:12.852Z,12.60
2018-11-10T17:36:40.840Z,12.60
2018-11-10T17:39:09.779Z,12.60
2018-11-10T17:41:37.795Z,12.60
2018-11-10T17:44:06.372Z,12.70
2018-11-10T17:46:34.479Z,12.60
2018-11-10T17:49:02.522Z,12.60
2018-11-10T17:51:30.569Z,12.50
2018-11-10T17:53:58.624Z,12.50
2018-11-10T17:56:26.748Z,12.60
2018-11-10T17:58:54.803Z,12.50
2018-11-10T18:01:22.877Z,12.50
2018-11-10T18:03:50.890Z,12.50
2018-11-10T18:06:18.949Z,12.40
2018-11-10T18:08:47.000Z,12.40
2018-11-10T18:11:15.040Z,12.30
2018-11-10T18:13:43.075Z,12.30
2018-11-10T18:16:11.129Z,12.30
2018-11-10T18:18:39.166Z,12.20
2018-11-10T18:21:07.228Z,12.20
2018-11-10T18:23:35.356Z,12.20
2018-11-10T18:26:03.393Z,12.20
2018-11-10T18:28:31.443Z,12.10
2018-11-10T18:30:59.472Z,12.10
2018-11-10T18:33:27.525Z,12.20
2018-11-10T18:35:55.569Z,12.10
2018-11-10T18:38:23.590Z,12.10
2018-11-10T18:40:52.508Z,12.10
2018-11-10T18:43:20.564Z,12.10
2018-11-10T18:45:48.658Z,12.10
2018-11-10T18:48:16.707Z,12.10
2018-11-10T18:50:44.728Z,12.10
2018-11-10T18:53:12.759Z,12.10
2018-11-10T18:55:40.793Z,12.10
2018-11-10T18:58:08.877Z,12.10
2018-11-10T19:00:36.904Z,12.10
2018-11-10T19:03:05.114Z,12.10
2018-11-10T19:05:33.239Z,12.10
2018-11-10T19:08:01.264Z,12.10
2018-11-10T19:10:29.324Z,12.10
2018-11-10T19:12:57.435Z,12.20
2018-11-10T19:15:25.408Z,12.20
2018-11-10T19:17:53.468Z,12.30
2018-11-10T19:20:21.509Z,12.30
2018-11-10T19:22:49.574Z,12.30
2018-11-10T19:25:17.580Z,12.30
2018-11-10T19:27:45.641Z,12.30
2018-11-10T19:30:15.951Z,12.20
2018-11-10T19:32:44.845Z,12.20
2018-11-10T19:35:13.111Z,12.20
2018-11-10T19:37:41.309Z,12.20
2018-11-10T19:40:10.188Z,12.20
2018-11-10T19:42:38.444Z,12.20
2018-11-10T19:45:07.397Z,12.20
2018-11-10T19:47:35.442Z,12.20
2018-11-10T19:50:03.596Z,12.30
2018-11-10T19:52:31.588Z,12.30
2018-11-10T19:54:59.637Z,12.40
2018-11-10T19:57:27.841Z,12.40
2018-11-10T19:59:55.889Z,12.50
2018-11-10T20:02:23.923Z,12.50
2018-11-10T20:04:51.981Z,12.60
2018-11-10T20:07:20.056Z,12.60
2018-11-10T20:09:48.115Z,12.60
2018-11-10T20:12:16.148Z,12.60
2018-11-10T20:14:44.265Z,12.60
2018-11-10T20:17:12.320Z,12.60
2018-11-10T20:19:40.426Z,12.70
2018-11-10T20:22:08.396Z,12.60
2018-11-10T20:24:36.449Z,12.60
2018-11-10T20:27:04.530Z,12.60
2018-11-10T20:29:32.598Z,12.60
2018-11-10T20:32:00.644Z,12.70
2018-11-10T20:34:28.694Z,12.60
2018-11-10T20:36:56.715Z,12.60
2018-11-10T20:39:24.760Z,12.70
2018-11-10T20:41:52.815Z,12.70
2018-11-10T20:44:20.862Z,12.80
2018-11-10T20:46:48.900Z,12.80
2018-11-10T20:49:16.976Z,12.80
2018-11-10T20:51:45.016Z,12.80
2018-11-10T20:54:13.081Z,12.80
2018-11-10T20:56:41.111Z,12.80
2018-11-10T20:59:09.171Z,12.80
2018-11-10T21:01:37.240Z,12.90
2018-11-10T21:04:05.498Z,12.90
2018-11-10T21:06:33.549Z,13.00
2018-11-10T21:09:01.577Z,13.00
2018-11-10T21:11:29.626Z,13.10
2018-11-10T21:13:57.664Z,13.10
2018-11-10T21:16:25.742Z,13.10
2018-11-10T21:18:53.787Z,13.10
2018-11-10T21:21:21.817Z,13.10
2018-11-10T21:23:49.867Z,13.10
2018-11-10T21:26:17.929Z,13.10
2018-11-10T21:28:46.052Z,13.10
2018-11-10T21:31:14.004Z,13.20
2018-11-10T21:33:42.153Z,13.20
2018-11-10T21:36:10.123Z,13.20
2018-11-10T21:38:38.159Z,13.20
2018-11-10T21:41:06.248Z,13.20
2018-11-10T21:43:34.304Z,13.20
2018-11-10T21:46:02.337Z,13.20
2018-11-10T21:48:30.362Z,13.20
2018-11-10T21:50:58.408Z,13.20
2018-11-10T21:53:26.449Z,13.20
2018-11-10T21:55:54.485Z,13.20
2018-11-10T21:58:22.556Z,13.20
2018-11-10T22:00:50.602Z,13.10
2018-11-10T22:03:18.647Z,13.00
2018-11-10T22:05:46.700Z,13.00
2018-11-10T22:08:14.759Z,13.00
2018-11-10T22:10:42.812Z,13.00
2018-11-10T22:13:10.856Z,12.90
2018-11-10T22:15:38.945Z,13.00
2018-11-10T22:18:06.945Z,12.90
2018-11-10T22:20:34.988Z,12.90
2018-11-10T22:23:03.108Z,12.90
2018-11-10T22:25:31.073Z,13.00
2018-11-10T22:27:59.139Z,12.90
2018-11-10T22:30:27.194Z,13.00
2018-11-10T22:32:55.232Z,13.00
2018-11-10T22:35:23.298Z,12.90
2018-11-10T22:37:51.329Z,12.90
2018-11-10T22:40:20.680Z,12.90
2018-11-10T22:42:48.728Z,12.90
2018-11-10T22:45:17.955Z,13.00
2018-11-10T22:47:46.033Z,13.00
2018-11-10T22:50:16.763Z,13.00
2018-11-10T22:52:45.129Z,13.00
2018-11-10T22:55:13.204Z,13.00
2018-11-10T22:57:41.468Z,13.10
2018-11-10T23:00:20.684Z,13.10
2018-11-10T23:02:50.829Z,13.00
2018-11-10T23:05:19.441Z,13.10
2018-11-10T23:07:47.485Z,13.10
2018-11-10T23:10:16.075Z,13.00
2018-11-10T23:12:45.261Z,13.10
2018-11-10T23:15:13.304Z,13.00
2018-11-10T23:17:41.904Z,13.10
2018-11-10T23:20:12.341Z,13.10
2018-11-10T23:22:40.370Z,13.10
2018-11-10T23:25:10.327Z,13.10
2018-11-10T23:27:38.405Z,13.10
2018-11-10T23:30:09.112Z,13.10
2018-11-10T23:32:37.296Z,13.10
2018-11-10T23:35:05.644Z,13.00
2018-11-10T23:37:33.700Z,13.00
2018-11-10T23:40:01.729Z,13.10
2018-11-10T23:42:29.796Z,13.10
2018-11-10T23:44:57.832Z,13.10
2018-11-10T23:47:25.857Z,13.10
2018-11-10T23:49:53.880Z,13.10
2018-11-10T23:52:21.936Z,13.20
2018-11-10T23:54:49.976Z,13.20
2018-11-10T23:57:18.013Z,13.30
2018-11-10T23:59:46.052Z,13.20
